createdAt,value
2023-01-03T00:01:22.000Z,101735.38
2023-01-03T00:05:23.682Z,101727.59
2023-01-03T00:09:25.449Z,101730.84
2023-01-03T00:13:27.007Z,101733.53
2023-01-03T00:17:29.057Z,101753.56
2023-01-03T00:21:30.625Z,101745.41
2023-01-03T00:25:32.149Z,101743.09
2023-01-03T00:29:34.378Z,101749.19
2023-01-03T00:33:37.877Z,101741.94
2023-01-03T00:37:39.521Z,101740.50
2023-01-03T00:41:41.351Z,101740.63
2023-01-03T00:45:42.958Z,101745.47
2023-01-03T00:49:44.659Z,101749.56
2023-01-03T00:53:47.916Z,101741.34
2023-01-03T00:57:49.457Z,101745.94
2023-01-03T01:01:54.721Z,101743.28
2023-01-03T01:05:56.437Z,101745.97
2023-01-03T01:09:58.001Z,101739.59
2023-01-03T01:13:59.628Z,101744.22
2023-01-03T01:18:02.058Z,101745.50
2023-01-03T01:22:04.212Z,101752.09
2023-01-03T01:26:07.396Z,101748.34
2023-01-03T01:30:09.137Z,101758.31
2023-01-03T01:34:11.149Z,101767.41
2023-01-03T01:38:12.785Z,101767.22
2023-01-03T01:42:33.043Z,101767.16
2023-01-03T01:46:34.725Z,101777.94
2023-01-03T01:50:46.731Z,101780.41
2023-01-03T01:54:51.498Z,101782.63
2023-01-03T01:58:53.877Z,101791.16
2023-01-03T02:02:56.035Z,101773.09
2023-01-03T02:06:58.377Z,101777.88
2023-01-03T02:11:26.260Z,101776.69
2023-01-03T02:15:50.790Z,101775.75
2023-01-03T02:19:55.281Z,101783.19
2023-01-03T02:24:06.173Z,101788.38
2023-01-03T02:28:38.478Z,101790.94
2023-01-03T02:32:52.733Z,101784.94
2023-01-03T02:37:23.570Z,101791.63
2023-01-03T02:41:42.785Z,101787.19
2023-01-03T02:46:00.040Z,101785.44
2023-01-03T02:50:04.484Z,101786.13
2023-01-03T02:54:10.536Z,101778.94
2023-01-03T02:58:39.954Z,101782.28
2023-01-03T03:02:50.133Z,101785.53
2023-01-03T03:07:03.270Z,101794.63
2023-01-03T03:11:23.442Z,101791.00
2023-01-03T03:15:30.994Z,101804.34
2023-01-03T03:19:53.978Z,101789.81
2023-01-03T03:24:20.915Z,101795.59
2023-01-03T03:28:36.018Z,101789.41
2023-01-03T03:32:41.602Z,101802.63
2023-01-03T03:36:58.754Z,101809.09
2023-01-03T03:41:35.296Z,101807.88
2023-01-03T03:45:42.462Z,101810.44
2023-01-03T03:49:45.841Z,101814.78
2023-01-03T03:53:48.169Z,101815.34
2023-01-03T03:58:07.139Z,101821.22
2023-01-03T04:02:11.342Z,101815.59
2023-01-03T04:06:22.250Z,101818.06
2023-01-03T04:10:24.419Z,101814.41
2023-01-03T04:14:28.244Z,101822.94
2023-01-03T04:18:30.113Z,101824.59
2023-01-03T04:22:31.655Z,101836.47
2023-01-03T04:26:33.726Z,101833.91
2023-01-03T04:30:35.453Z,101822.72
2023-01-03T04:34:37.026Z,101827.81
2023-01-03T04:38:38.633Z,101830.16
2023-01-03T04:42:58.680Z,101829.41
2023-01-03T04:47:00.185Z,101833.97
2023-01-03T04:51:01.764Z,101840.63
2023-01-03T04:55:03.336Z,101838.06
2023-01-03T04:59:05.576Z,101835.97
2023-01-03T05:03:07.209Z,101835.88
2023-01-03T05:07:08.755Z,101843.63
2023-01-03T05:11:10.339Z,101850.72
2023-01-03T05:15:11.838Z,101836.09
2023-01-03T05:19:13.408Z,101839.53
2023-01-03T05:23:35.223Z,101847.06
2023-01-03T05:27:36.863Z,101843.28
2023-01-03T05:31:38.795Z,101843.28
2023-01-03T05:35:40.609Z,101840.00
2023-01-03T05:39:42.149Z,101847.44
2023-01-03T05:43:43.673Z,101850.69
2023-01-03T05:47:45.239Z,101859.00
2023-01-03T05:51:46.833Z,101853.69
2023-01-03T05:55:48.436Z,101851.72
2023-01-03T05:59:50.840Z,101860.38
2023-01-03T06:03:52.815Z,101858.59
2023-01-03T06:07:54.500Z,101859.47
2023-01-03T06:11:56.055Z,101853.63
2023-01-03T06:16:24.800Z,101858.72
2023-01-03T06:20:27.561Z,101863.47
2023-01-03T06:24:29.339Z,101865.22
2023-01-03T06:28:30.853Z,101869.56
2023-01-03T06:32:32.509Z,101882.09
2023-01-03T06:36:34.496Z,101893.84
2023-01-03T06:40:40.775Z,101890.19
2023-01-03T06:44:43.945Z,101883.88
2023-01-03T06:49:05.260Z,101890.44
2023-01-03T06:53:13.647Z,101889.09
2023-01-03T06:57:25.968Z,101891.63
2023-01-03T07:01:30.919Z,101889.75
2023-01-03T07:05:32.788Z,101883.78
2023-01-03T07:09:34.334Z,101892.88
2023-01-03T07:13:54.503Z,101900.28
2023-01-03T07:17:56.377Z,101897.19
2023-01-03T07:21:57.896Z,101899.50
2023-01-03T07:25:59.522Z,101907.81
2023-01-03T07:30:01.105Z,101920.31
2023-01-03T07:34:02.671Z,101921.94
2023-01-03T07:38:05.131Z,101928.25
2023-01-03T07:42:25.353Z,101928.78
2023-01-03T07:46:29.586Z,101941.84
2023-01-03T07:50:31.290Z,101950.25
2023-01-03T07:54:32.865Z,101956.03
2023-01-03T07:58:35.517Z,101954.56
2023-01-03T08:02:37.238Z,101961.19
2023-01-03T08:06:38.962Z,101960.41
2023-01-03T08:10:58.891Z,101957.09
2023-01-03T08:15:00.462Z,101961.53
2023-01-03T08:19:02.092Z,101971.94
2023-01-03T08:23:03.841Z,101977.91
2023-01-03T08:27:05.446Z,101977.78
2023-01-03T08:31:34.404Z,101979.66
2023-01-03T08:35:38.074Z,101981.50
2023-01-03T08:39:46.624Z,101984.16
2023-01-03T08:43:49.128Z,101989.47
2023-01-03T08:47:50.701Z,101996.22
2023-01-03T08:51:52.310Z,102002.59
2023-01-03T08:55:53.847Z,102009.78
2023-01-03T08:59:55.426Z,102011.44
2023-01-03T09:03:57.115Z,102014.69
2023-01-03T09:07:58.989Z,102013.59
2023-01-03T09:12:00.612Z,102024.47
2023-01-03T09:16:07.673Z,102024.06
2023-01-03T09:20:10.240Z,102032.47
2023-01-03T09:24:11.836Z,102031.59
2023-01-03T09:28:13.831Z,102034.72
2023-01-03T09:32:15.671Z,102030.97
2023-01-03T09:36:17.348Z,102027.91
2023-01-03T09:40:19.139Z,102035.22
2023-01-03T09:44:20.711Z,102033.63
2023-01-03T09:48:40.675Z,102028.31
2023-01-03T09:53:03.233Z,102021.00
2023-01-03T09:57:34.230Z,102019.91
2023-01-03T10:02:21.985Z,102021.47
2023-01-03T10:06:55.435Z,102017.84
2023-01-03T10:11:08.394Z,102023.59
2023-01-03T10:15:15.975Z,102027.84
2023-01-03T10:19:26.515Z,102028.06
2023-01-03T10:23:30.384Z,102013.72
2023-01-03T10:27:35.238Z,102012.06
2023-01-03T10:31:47.146Z,102016.13
2023-01-03T10:35:49.255Z,102021.69
2023-01-03T10:40:02.000Z,101997.69
2023-01-03T10:44:04.498Z,101997.22
2023-01-03T10:48:06.106Z,101996.09
2023-01-03T10:52:31.525Z,101997.72
2023-01-03T10:56:35.797Z,101999.31
2023-01-03T11:00:38.708Z,102000.00
2023-01-03T11:04:41.508Z,101997.19
2023-01-03T11:08:48.156Z,101987.97
2023-01-03T11:12:50.045Z,101981.81
2023-01-03T11:17:12.663Z,101977.22
2023-01-03T11:21:30.145Z,101981.38
2023-01-03T11:26:13.673Z,101982.66
2023-01-03T11:30:26.970Z,101973.69
2023-01-03T11:35:21.585Z,101961.22
2023-01-03T11:39:34.929Z,101970.28
2023-01-03T11:44:16.289Z,101955.50
2023-01-03T11:48:17.821Z,101951.00
2023-01-03T11:53:00.805Z,101941.38
2023-01-03T11:57:14.246Z,101938.72
2023-01-03T12:01:39.094Z,101940.03
2023-01-03T12:05:48.705Z,101936.09
2023-01-03T12:10:06.625Z,101938.06
2023-01-03T12:14:15.708Z,101940.06
2023-01-03T12:18:32.799Z,101940.56
2023-01-03T12:22:41.779Z,101931.59
2023-01-03T12:26:51.250Z,101933.81
2023-01-03T12:31:09.455Z,101923.34
2023-01-03T12:35:27.486Z,101918.41
2023-01-03T12:39:47.714Z,101915.25
2023-01-03T12:43:54.738Z,101910.72
2023-01-03T12:48:11.374Z,101910.66
2023-01-03T12:52:17.236Z,101909.63
2023-01-03T12:56:29.075Z,101907.06
2023-01-03T13:00:52.753Z,101901.94
2023-01-03T13:05:01.148Z,101891.69
2023-01-03T13:09:19.486Z,101882.50
2023-01-03T13:13:21.791Z,101886.06
2023-01-03T13:17:28.395Z,101884.50
2023-01-03T13:22:09.162Z,101875.47
2023-01-03T13:26:20.641Z,101874.94
2023-01-03T13:30:31.113Z,101873.13
2023-01-03T13:34:34.406Z,101867.84
2023-01-03T13:38:36.006Z,101864.13
2023-01-03T13:42:39.627Z,101872.63
2023-01-03T13:46:42.439Z,101862.47
2023-01-03T13:51:14.204Z,101861.22
2023-01-03T13:55:36.985Z,101856.56
2023-01-03T13:59:44.118Z,101848.63
2023-01-03T14:04:08.220Z,101851.78
2023-01-03T14:08:46.335Z,101859.06
2023-01-03T14:13:12.333Z,101857.22
2023-01-03T14:17:17.650Z,101858.34
2023-01-03T14:21:25.768Z,101857.19
2023-01-03T14:25:39.923Z,101854.25
2023-01-03T14:29:47.391Z,101853.63
2023-01-03T14:33:59.142Z,101852.28
2023-01-03T14:38:06.522Z,101860.31
2023-01-03T14:42:16.356Z,101861.72
2023-01-03T14:46:18.647Z,101861.19
2023-01-03T14:50:28.800Z,101862.50
2023-01-03T14:54:30.677Z,101876.72
2023-01-03T14:58:47.224Z,101868.66
2023-01-03T15:02:49.537Z,101880.28
2023-01-03T15:07:02.525Z,101871.81
2023-01-03T15:11:09.018Z,101887.97
2023-01-03T15:15:24.686Z,101888.75
2023-01-03T15:19:28.762Z,101886.09
2023-01-03T15:23:36.679Z,101894.25
2023-01-03T15:27:38.206Z,101898.75
2023-01-03T15:31:47.790Z,101893.81
2023-01-03T15:35:51.499Z,101899.13
2023-01-03T15:39:55.523Z,101899.91
2023-01-03T15:43:57.124Z,101896.81
2023-01-03T15:48:01.166Z,101901.53
2023-01-03T15:52:02.842Z,101907.97
2023-01-03T15:56:14.483Z,101913.81
2023-01-03T16:00:20.192Z,101911.22
2023-01-03T16:04:22.108Z,101912.63
2023-01-03T16:08:37.061Z,101921.88
2023-01-03T16:12:41.700Z,101923.81
2023-01-03T16:16:47.086Z,101928.69
2023-01-03T16:20:49.146Z,101924.72
2023-01-03T16:24:50.751Z,101924.66
2023-01-03T16:28:52.272Z,101925.13
2023-01-03T16:32:53.882Z,101935.44
2023-01-03T16:36:55.436Z,101934.44
2023-01-03T16:40:57.700Z,101936.31
2023-01-03T16:44:59.253Z,101942.81
2023-01-03T16:49:00.983Z,101946.34
2023-01-03T16:53:03.086Z,101955.69
2023-01-03T16:57:04.641Z,101949.81
2023-01-03T17:01:06.501Z,101955.69
2023-01-03T17:05:08.549Z,101960.03
2023-01-03T17:09:22.435Z,101949.91
2023-01-03T17:13:41.883Z,101957.50
2023-01-03T17:17:43.488Z,101960.72
2023-01-03T17:21:51.203Z,101953.94
2023-01-03T17:25:53.572Z,101956.78
2023-01-03T17:30:00.053Z,101959.94
2023-01-03T17:34:12.109Z,101967.22
2023-01-03T17:38:25.752Z,101965.69
2023-01-03T17:42:29.169Z,101981.19
2023-01-03T17:46:50.229Z,101987.38
2023-01-03T17:50:51.906Z,101995.19
2023-01-03T17:54:53.760Z,101996.97
2023-01-03T17:58:56.513Z,101985.84
2023-01-03T18:03:01.011Z,101986.50
2023-01-03T18:07:02.879Z,101993.09
2023-01-03T18:11:07.289Z,101988.38
2023-01-03T18:15:17.252Z,101993.81
2023-01-03T18:19:18.799Z,101993.59
2023-01-03T18:23:25.832Z,101994.69
2023-01-03T18:27:27.656Z,101990.25
2023-01-03T18:31:29.736Z,101995.09
2023-01-03T18:35:37.421Z,101983.56
2023-01-03T18:39:40.083Z,101986.69
2023-01-03T18:43:41.626Z,101987.19
2023-01-03T18:47:43.444Z,101979.13
2023-01-03T18:51:53.299Z,101976.66
2023-01-03T18:55:54.956Z,101977.94
2023-01-03T18:59:56.511Z,101983.41
2023-01-03T19:03:58.345Z,101978.09
2023-01-03T19:08:00.388Z,101980.56
2023-01-03T19:12:01.988Z,101987.41
2023-01-03T19:16:03.723Z,101991.59
2023-01-03T19:20:06.063Z,101986.47
2023-01-03T19:24:22.404Z,101977.94
2023-01-03T19:28:25.272Z,101976.06
2023-01-03T19:32:29.334Z,101978.53
2023-01-03T19:36:31.468Z,101983.50
2023-01-03T19:40:34.409Z,101989.19
2023-01-03T19:44:36.389Z,101982.22
2023-01-03T19:48:37.906Z,101969.91
2023-01-03T19:52:39.533Z,101969.03
2023-01-03T19:56:41.148Z,101966.34
2023-01-03T20:00:43.080Z,101971.47
2023-01-03T20:04:45.074Z,101964.69
2023-01-03T20:08:47.227Z,101960.47
2023-01-03T20:12:50.964Z,101965.47
2023-01-03T20:16:52.512Z,101956.81
2023-01-03T20:20:57.148Z,101962.81
2023-01-03T20:24:58.751Z,101954.41
2023-01-03T20:29:00.762Z,101950.84
2023-01-03T20:33:02.378Z,101954.28
2023-01-03T20:37:04.389Z,101954.19
2023-01-03T20:41:06.347Z,101937.00
2023-01-03T20:45:08.567Z,101940.09
2023-01-03T20:49:27.960Z,101935.47
2023-01-03T20:53:29.483Z,101936.50
2023-01-03T20:57:31.046Z,101928.72
2023-01-03T21:01:32.769Z,101924.88
2023-01-03T21:05:35.275Z,101933.94
2023-01-03T21:09:36.868Z,101928.31
2023-01-03T21:13:38.399Z,101928.06
2023-01-03T21:17:40.974Z,101920.84
2023-01-03T21:21:47.517Z,101924.63
2023-01-03T21:25:49.736Z,101923.31
2023-01-03T21:29:51.325Z,101924.53
2023-01-03T21:33:52.947Z,101928.19
2023-01-03T21:37:55.005Z,101924.53
2023-01-03T21:42:15.142Z,101917.34
2023-01-03T21:46:18.651Z,101915.09
2023-01-03T21:50:21.405Z,101900.41
2023-01-03T21:54:23.177Z,101903.81
2023-01-03T21:58:24.902Z,101911.25
2023-01-03T22:02:45.533Z,101910.13
2023-01-03T22:06:47.253Z,101917.34
2023-01-03T22:10:48.818Z,101911.25
2023-01-03T22:14:50.324Z,101894.06
2023-01-03T22:18:52.295Z,101883.66
2023-01-03T22:22:54.535Z,101892.06
2023-01-03T22:26:56.100Z,101901.06
2023-01-03T22:30:57.664Z,101896.41
2023-01-03T22:34:59.596Z,101896.41
2023-01-03T22:39:01.145Z,101910.66
2023-01-03T22:43:02.716Z,101908.25
2023-01-03T22:47:04.715Z,101915.97
2023-01-03T22:51:09.344Z,101913.72
2023-01-03T22:55:11.609Z,101902.66
2023-01-03T22:59:13.524Z,101903.53
2023-01-03T23:03:15.082Z,101913.72
2023-01-03T23:07:16.712Z,101903.22
2023-01-03T23:11:39.712Z,101893.47
2023-01-03T23:15:41.269Z,101888.47
2023-01-03T23:19:42.819Z,101883.03
2023-01-03T23:23:49.507Z,101890.78
2023-01-03T23:27:51.159Z,101876.75
2023-01-03T23:31:52.799Z,101869.66
2023-01-03T23:35:54.379Z,101863.69
2023-01-03T23:39:56.146Z,101856.69
2023-01-03T23:43:57.672Z,101849.06
2023-01-03T23:47:59.247Z,101852.41
2023-01-03T23:52:00.814Z,101851.47
2023-01-03T23:56:07.086Z,101852.63
